sensor_id;sensor_type;location;lat;lon;timestamp;pressure;altitude;pressure_sealevel;temperature;humidity
70488;BME280;57976;48.174;16.370;2023-05-23T00:00:13;98799.94;;;19.54;74.40
70488;BME280;57976;48.174;16.370;2023-05-23T00:02:20;98801.60;;;19.54;74.36
70488;BME280;57976;48.174;16.370;2023-05-23T00:04:25;98799.02;;;19.52;74.05
70488;BME280;57976;48.174;16.370;2023-05-23T00:06:46;98802.67;;;19.51;73.92
70488;BME280;57976;48.174;16.370;2023-05-23T00:08:52;98803.82;;;19.42;73.79
70488;BME280;57976;48.174;16.370;2023-05-23T00:10:57;98804.45;;;19.35;74.33
70488;BME280;57976;48.174;16.370;2023-05-23T00:13:02;98806.77;;;19.29;74.67
70488;BME280;57976;48.174;16.370;2023-05-23T00:15:09;98808.22;;;19.24;74.84
70488;BME280;57976;48.174;16.370;2023-05-23T00:17:14;98813.02;;;19.17;75.16
70488;BME280;57976;48.174;16.370;2023-05-23T00:19:19;98811.02;;;19.08;75.54
70488;BME280;57976;48.174;16.370;2023-05-23T00:21:24;98809.92;;;19.00;75.79
70488;BME280;57976;48.174;16.370;2023-05-23T00:23:28;98803.39;;;18.96;76.00
70488;BME280;57976;48.174;16.370;2023-05-23T00:25:34;98808.83;;;18.95;76.34
70488;BME280;57976;48.174;16.370;2023-05-23T00:27:39;98803.05;;;18.89;76.74
70488;BME280;57976;48.174;16.370;2023-05-23T00:29:44;98805.09;;;18.83;76.94
70488;BME280;57976;48.174;16.370;2023-05-23T00:31:49;98798.96;;;18.76;77.16
70488;BME280;57976;48.174;16.370;2023-05-23T00:33:54;98805.75;;;18.70;77.49
70488;BME280;57976;48.174;16.370;2023-05-23T00:35:59;98806.98;;;18.68;77.80
70488;BME280;57976;48.174;16.370;2023-05-23T00:38:04;98804.92;;;18.65;77.87
70488;BME280;57976;48.174;16.370;2023-05-23T00:40:11;98804.29;;;18.65;78.23
70488;BME280;57976;48.174;16.370;2023-05-23T00:42:16;98804.60;;;18.65;78.18
70488;BME280;57976;48.174;16.370;2023-05-23T00:44:21;98806.01;;;18.64;78.19
70488;BME280;57976;48.174;16.370;2023-05-23T00:46:26;98807.85;;;18.64;78.32
70488;BME280;57976;48.174;16.370;2023-05-23T00:48:32;98808.70;;;18.63;78.43
70488;BME280;57976;48.174;16.370;2023-05-23T00:50:37;98811.40;;;18.63;78.52
70488;BME280;57976;48.174;16.370;2023-05-23T00:52:43;98809.84;;;18.64;78.54
70488;BME280;57976;48.174;16.370;2023-05-23T00:54:48;98812.97;;;18.65;78.56
70488;BME280;57976;48.174;16.370;2023-05-23T00:56:54;98807.63;;;18.64;78.58
70488;BME280;57976;48.174;16.370;2023-05-23T00:58:59;98807.23;;;18.63;78.63
70488;BME280;57976;48.174;16.370;2023-05-23T01:01:05;98803.52;;;18.62;78.65
70488;BME280;57976;48.174;16.370;2023-05-23T01:04:31;98801.94;;;18.61;78.60
70488;BME280;57976;48.174;16.370;2023-05-23T01:06:37;98805.70;;;18.57;78.61
70488;BME280;57976;48.174;16.370;2023-05-23T01:08:43;98799.88;;;18.54;78.83
70488;BME280;57976;48.174;16.370;2023-05-23T01:10:48;98797.77;;;18.52;78.96
70488;BME280;57976;48.174;16.370;2023-05-23T01:13:00;98796.95;;;18.50;79.04
70488;BME280;57976;48.174;16.370;2023-05-23T01:15:10;98802.66;;;18.49;79.28
70488;BME280;57976;48.174;16.370;2023-05-23T01:17:20;98801.25;;;18.47;79.27
70488;BME280;57976;48.174;16.370;2023-05-23T01:19:47;98802.05;;;18.48;79.32
70488;BME280;57976;48.174;16.370;2023-05-23T01:21:56;98804.10;;;18.48;79.35
70488;BME280;57976;48.174;16.370;2023-05-23T01:24:20;98799.84;;;18.45;79.59
70488;BME280;57976;48.174;16.370;2023-05-23T01:26:44;98798.67;;;18.46;79.39
70488;BME280;57976;48.174;16.370;2023-05-23T01:28:53;98795.03;;;18.45;79.42
70488;BME280;57976;48.174;16.370;2023-05-23T01:31:02;98789.77;;;18.43;79.51
70488;BME280;57976;48.174;16.370;2023-05-23T01:33:08;98793.60;;;18.43;79.70
70488;BME280;57976;48.174;16.370;2023-05-23T01:35:14;98794.06;;;18.45;79.57
70488;BME280;57976;48.174;16.370;2023-05-23T01:37:22;98791.91;;;18.47;79.60
70488;BME280;57976;48.174;16.370;2023-05-23T01:39:30;98790.42;;;18.50;79.77
70488;BME280;57976;48.174;16.370;2023-05-23T01:41:36;98786.05;;;18.50;79.71
70488;BME280;57976;48.174;16.370;2023-05-23T01:43:42;98784.17;;;18.50;79.45
70488;BME280;57976;48.174;16.370;2023-05-23T01:45:47;98788.44;;;18.52;79.55
70488;BME280;57976;48.174;16.370;2023-05-23T01:47:53;98783.40;;;18.53;79.49
70488;BME280;57976;48.174;16.370;2023-05-23T01:49:59;98778.60;;;18.51;79.40
70488;BME280;57976;48.174;16.370;2023-05-23T01:52:06;98774.94;;;18.49;79.48
70488;BME280;57976;48.174;16.370;2023-05-23T01:54:12;98771.27;;;18.48;79.69
70488;BME280;57976;48.174;16.370;2023-05-23T01:56:20;98769.50;;;18.44;79.93
70488;BME280;57976;48.174;16.370;2023-05-23T01:58:25;98766.88;;;18.39;80.00
70488;BME280;57976;48.174;16.370;2023-05-23T02:00:30;98772.95;;;18.36;80.22
70488;BME280;57976;48.174;16.370;2023-05-23T02:02:35;98769.46;;;18.34;80.28
70488;BME280;57976;48.174;16.370;2023-05-23T02:04:40;98770.44;;;18.37;80.50
70488;BME280;57976;48.174;16.370;2023-05-23T02:06:45;98769.48;;;18.40;80.63
70488;BME280;57976;48.174;16.370;2023-05-23T02:08:50;98771.64;;;18.39;81.05
70488;BME280;57976;48.174;16.370;2023-05-23T02:10:54;98773.95;;;18.35;81.19
70488;BME280;57976;48.174;16.370;2023-05-23T02:13:00;98775.60;;;18.32;81.26
70488;BME280;57976;48.174;16.370;2023-05-23T02:15:06;98778.70;;;18.29;81.48
70488;BME280;57976;48.174;16.370;2023-05-23T02:17:12;98774.42;;;18.19;81.60
70488;BME280;57976;48.174;16.370;2023-05-23T02:19:16;98767.92;;;18.15;82.10
70488;BME280;57976;48.174;16.370;2023-05-23T02:21:23;98766.95;;;18.13;82.41
70488;BME280;57976;48.174;16.370;2023-05-23T02:23:27;98763.90;;;18.09;82.57
70488;BME280;57976;48.174;16.370;2023-05-23T02:25:32;98760.91;;;18.03;82.78
70488;BME280;57976;48.174;16.370;2023-05-23T02:27:37;98760.09;;;18.00;83.01
70488;BME280;57976;48.174;16.370;2023-05-23T02:29:41;98759.73;;;17.94;83.10
70488;BME280;57976;48.174;16.370;2023-05-23T02:31:46;98760.73;;;17.89;83.30
70488;BME280;57976;48.174;16.370;2023-05-23T02:33:51;98757.59;;;17.86;83.59
70488;BME280;57976;48.174;16.370;2023-05-23T02:35:56;98758.88;;;17.84;83.67
70488;BME280;57976;48.174;16.370;2023-05-23T02:38:01;98758.71;;;17.84;84.18
70488;BME280;57976;48.174;16.370;2023-05-23T02:40:08;98755.74;;;17.83;84.16
70488;BME280;57976;48.174;16.370;2023-05-23T02:42:13;98753.36;;;17.81;84.27
70488;BME280;57976;48.174;16.370;2023-05-23T02:44:18;98752.80;;;17.77;84.38
70488;BME280;57976;48.174;16.370;2023-05-23T02:46:23;98751.71;;;17.76;84.61
70488;BME280;57976;48.174;16.370;2023-05-23T02:48:27;98753.98;;;17.77;84.87
70488;BME280;57976;48.174;16.370;2023-05-23T02:50:32;98758.95;;;17.76;84.75
70488;BME280;57976;48.174;16.370;2023-05-23T02:52:37;98756.98;;;17.74;84.90
70488;BME280;57976;48.174;16.370;2023-05-23T02:54:42;98755.31;;;17.72;84.89
70488;BME280;57976;48.174;16.370;2023-05-23T02:56:47;98753.11;;;17.72;85.06
70488;BME280;57976;48.174;16.370;2023-05-23T02:58:51;98750.66;;;17.72;85.21
70488;BME280;57976;48.174;16.370;2023-05-23T03:00:56;98751.41;;;17.70;84.96
70488;BME280;57976;48.174;16.370;2023-05-23T03:03:01;98750.70;;;17.69;85.06
70488;BME280;57976;48.174;16.370;2023-05-23T03:05:07;98752.83;;;17.64;85.27
70488;BME280;57976;48.174;16.370;2023-05-23T03:07:12;98748.77;;;17.60;85.36
70488;BME280;57976;48.174;16.370;2023-05-23T03:09:32;98750.67;;;17.55;85.40
70488;BME280;57976;48.174;16.370;2023-05-23T03:11:36;98753.88;;;17.52;85.42
70488;BME280;57976;48.174;16.370;2023-05-23T03:13:41;98753.23;;;17.51;85.75
70488;BME280;57976;48.174;16.370;2023-05-23T03:15:46;98757.25;;;17.50;85.61
70488;BME280;57976;48.174;16.370;2023-05-23T03:17:51;98758.63;;;17.49;85.68
70488;BME280;57976;48.174;16.370;2023-05-23T03:19:56;98757.91;;;17.45;85.63
70488;BME280;57976;48.174;16.370;2023-05-23T03:22:01;98762.02;;;17.40;85.60
70488;BME280;57976;48.174;16.370;2023-05-23T03:24:06;98763.59;;;17.35;85.89
70488;BME280;57976;48.174;16.370;2023-05-23T03:26:11;98766.10;;;17.32;86.10
70488;BME280;57976;48.174;16.370;2023-05-23T03:28:16;98766.02;;;17.28;86.14
70488;BME280;57976;48.174;16.370;2023-05-23T03:30:21;98763.95;;;17.26;86.34
70488;BME280;57976;48.174;16.370;2023-05-23T03:32:26;98764.97;;;17.25;86.46
70488;BME280;57976;48.174;16.370;2023-05-23T03:34:31;98767.92;;;17.25;86.41
70488;BME280;57976;48.174;16.370;2023-05-23T03:36:36;98767.45;;;17.24;86.54
70488;BME280;57976;48.174;16.370;2023-05-23T03:38:41;98768.48;;;17.21;86.42
70488;BME280;57976;48.174;16.370;2023-05-23T03:40:46;98776.59;;;17.17;86.43
70488;BME280;57976;48.174;16.370;2023-05-23T03:43:02;98780.67;;;17.11;86.67
70488;BME280;57976;48.174;16.370;2023-05-23T03:45:08;98781.77;;;17.06;86.77
70488;BME280;57976;48.174;16.370;2023-05-23T03:47:13;98779.97;;;16.98;87.24
70488;BME280;57976;48.174;16.370;2023-05-23T03:49:19;98783.29;;;16.91;87.53
70488;BME280;57976;48.174;16.370;2023-05-23T03:51:24;98782.14;;;16.87;87.63
70488;BME280;57976;48.174;16.370;2023-05-23T03:53:29;98786.08;;;16.84;87.62
70488;BME280;57976;48.174;16.370;2023-05-23T03:55:34;98786.36;;;16.80;87.77
70488;BME280;57976;48.174;16.370;2023-05-23T03:57:39;98786.73;;;16.79;87.94
70488;BME280;57976;48.174;16.370;2023-05-23T03:59:44;98789.30;;;16.77;88.12
70488;BME280;57976;48.174;16.370;2023-05-23T04:01:49;98790.61;;;16.75;88.31
70488;BME280;57976;48.174;16.370;2023-05-23T04:03:54;98790.33;;;16.74;88.43
70488;BME280;57976;48.174;16.370;2023-05-23T04:06:00;98787.86;;;16.74;88.63
70488;BME280;57976;48.174;16.370;2023-05-23T04:08:05;98788.20;;;16.74;88.75
70488;BME280;57976;48.174;16.370;2023-05-23T04:10:10;98785.48;;;16.77;88.88
70488;BME280;57976;48.174;16.370;2023-05-23T04:12:17;98784.98;;;16.81;88.89
70488;BME280;57976;48.174;16.370;2023-05-23T04:14:23;98791.53;;;16.85;88.73
70488;BME280;57976;48.174;16.370;2023-05-23T04:16:28;98790.80;;;16.89;88.64
70488;BME280;57976;48.174;16.370;2023-05-23T04:18:33;98792.58;;;16.93;88.50
70488;BME280;57976;48.174;16.370;2023-05-23T04:20:38;98789.77;;;16.96;88.54
70488;BME280;57976;48.174;16.370;2023-05-23T04:22:43;98794.10;;;17.01;88.51
70488;BME280;57976;48.174;16.370;2023-05-23T04:24:48;98787.91;;;17.07;88.43
70488;BME280;57976;48.174;16.370;2023-05-23T04:26:53;98788.63;;;17.14;88.47
70488;BME280;57976;48.174;16.370;2023-05-23T04:28:57;98784.04;;;17.20;88.28
70488;BME280;57976;48.174;16.370;2023-05-23T04:31:02;98782.73;;;17.27;88.04
70488;BME280;57976;48.174;16.370;2023-05-23T04:33:10;98777.92;;;17.35;87.81
70488;BME280;57976;48.174;16.370;2023-05-23T04:35:16;98778.59;;;17.46;87.46
70488;BME280;57976;48.174;16.370;2023-05-23T04:37:22;98780.61;;;17.54;87.27
70488;BME280;57976;48.174;16.370;2023-05-23T04:39:27;98779.45;;;17.63;87.04
70488;BME280;57976;48.174;16.370;2023-05-23T04:41:52;98784.88;;;17.70;86.64
70488;BME280;57976;48.174;16.370;2023-05-23T04:44:15;98791.44;;;17.75;86.37
70488;BME280;57976;48.174;16.370;2023-05-23T04:46:28;98789.45;;;17.80;86.16
70488;BME280;57976;48.174;16.370;2023-05-23T04:49:02;98789.84;;;17.81;85.93
70488;BME280;57976;48.174;16.370;2023-05-23T04:51:07;98787.33;;;17.82;85.86
70488;BME280;57976;48.174;16.370;2023-05-23T04:53:16;98789.62;;;17.78;85.70
70488;BME280;57976;48.174;16.370;2023-05-23T04:55:21;98790.25;;;17.76;85.97
70488;BME280;57976;48.174;16.370;2023-05-23T04:57:26;98795.82;;;17.78;86.20
70488;BME280;57976;48.174;16.370;2023-05-23T04:59:31;98792.80;;;17.79;85.88
70488;BME280;57976;48.174;16.370;2023-05-23T05:01:39;98797.21;;;17.79;85.87
70488;BME280;57976;48.174;16.370;2023-05-23T05:03:45;98793.97;;;17.83;86.11
70488;BME280;57976;48.174;16.370;2023-05-23T05:05:50;98789.05;;;17.91;85.91
70488;BME280;57976;48.174;16.370;2023-05-23T05:07:55;98788.61;;;18.00;85.66
70488;BME280;57976;48.174;16.370;2023-05-23T05:10:00;98785.38;;;18.11;85.26
70488;BME280;57976;48.174;16.370;2023-05-23T05:12:06;98783.05;;;18.20;85.08
70488;BME280;57976;48.174;16.370;2023-05-23T05:14:11;98786.60;;;18.29;85.05
70488;BME280;57976;48.174;16.370;2023-05-23T05:16:16;98785.52;;;18.36;84.71
70488;BME280;57976;48.174;16.370;2023-05-23T05:18:21;98780.05;;;18.40;84.91
70488;BME280;57976;48.174;16.370;2023-05-23T05:20:26;98780.13;;;18.51;85.04
70488;BME280;57976;48.174;16.370;2023-05-23T05:22:31;98778.25;;;18.59;84.87
70488;BME280;57976;48.174;16.370;2023-05-23T05:24:35;98782.22;;;18.68;84.86
70488;BME280;57976;48.174;16.370;2023-05-23T05:26:41;98790.29;;;18.78;84.38
70488;BME280;57976;48.174;16.370;2023-05-23T05:28:46;98791.15;;;18.83;83.92
70488;BME280;57976;48.174;16.370;2023-05-23T05:30:52;98791.98;;;18.88;83.87
70488;BME280;57976;48.174;16.370;2023-05-23T05:32:58;98792.42;;;18.92;83.25
70488;BME280;57976;48.174;16.370;2023-05-23T05:35:04;98795.73;;;18.96;82.88
70488;BME280;57976;48.174;16.370;2023-05-23T05:37:09;98797.89;;;18.99;82.74
70488;BME280;57976;48.174;16.370;2023-05-23T05:39:14;98795.02;;;19.02;82.41
70488;BME280;57976;48.174;16.370;2023-05-23T05:41:19;98795.62;;;19.06;82.19
70488;BME280;57976;48.174;16.370;2023-05-23T05:43:26;98791.30;;;19.11;81.99
70488;BME280;57976;48.174;16.370;2023-05-23T05:45:31;98791.05;;;19.15;81.97
70488;BME280;57976;48.174;16.370;2023-05-23T05:47:36;98789.90;;;19.25;81.89
70488;BME280;57976;48.174;16.370;2023-05-23T05:49:41;98790.95;;;19.34;81.32
70488;BME280;57976;48.174;16.370;2023-05-23T05:51:46;98785.45;;;19.41;81.00
70488;BME280;57976;48.174;16.370;2023-05-23T05:53:51;98785.88;;;19.49;80.74
70488;BME280;57976;48.174;16.370;2023-05-23T05:55:56;98782.53;;;19.57;80.34
70488;BME280;57976;48.174;16.370;2023-05-23T05:58:00;98784.67;;;19.67;80.20
70488;BME280;57976;48.174;16.370;2023-05-23T06:00:14;98783.79;;;19.80;79.93
70488;BME280;57976;48.174;16.370;2023-05-23T06:02:29;98779.26;;;19.91;79.35
70488;BME280;57976;48.174;16.370;2023-05-23T06:04:34;98776.93;;;19.97;78.29
70488;BME280;57976;48.174;16.370;2023-05-23T06:06:39;98779.46;;;19.98;77.56
70488;BME280;57976;48.174;16.370;2023-05-23T06:08:45;98779.95;;;19.97;77.70
70488;BME280;57976;48.174;16.370;2023-05-23T06:10:55;98779.89;;;20.05;77.85
70488;BME280;57976;48.174;16.370;2023-05-23T06:13:01;98778.45;;;20.14;77.43
70488;BME280;57976;48.174;16.370;2023-05-23T06:15:07;98776.11;;;20.23;77.21
70488;BME280;57976;48.174;16.370;2023-05-23T06:17:13;98775.54;;;20.31;76.81
70488;BME280;57976;48.174;16.370;2023-05-23T06:19:20;98778.55;;;20.37;76.18
70488;BME280;57976;48.174;16.370;2023-05-23T06:21:25;98774.88;;;20.45;76.30
70488;BME280;57976;48.174;16.370;2023-05-23T06:23:30;98771.33;;;20.53;75.79
70488;BME280;57976;48.174;16.370;2023-05-23T06:25:35;98769.69;;;20.58;75.63
70488;BME280;57976;48.174;16.370;2023-05-23T06:27:40;98770.09;;;20.61;75.09
70488;BME280;57976;48.174;16.370;2023-05-23T06:29:45;98767.63;;;20.66;75.39
70488;BME280;57976;48.174;16.370;2023-05-23T06:31:49;98772.27;;;20.77;75.72
70488;BME280;57976;48.174;16.370;2023-05-23T06:33:54;98773.23;;;20.95;75.57
70488;BME280;57976;48.174;16.370;2023-05-23T06:35:59;98770.92;;;21.12;74.64
70488;BME280;57976;48.174;16.370;2023-05-23T06:38:04;98771.91;;;21.24;74.08
70488;BME280;57976;48.174;16.370;2023-05-23T06:40:11;98770.02;;;21.29;72.53
70488;BME280;57976;48.174;16.370;2023-05-23T06:42:16;98768.20;;;21.33;73.20
70488;BME280;57976;48.174;16.370;2023-05-23T06:44:47;98775.55;;;21.43;72.60
70488;BME280;57976;48.174;16.370;2023-05-23T06:46:52;98777.58;;;21.53;71.33
70488;BME280;57976;48.174;16.370;2023-05-23T06:48:57;98772.52;;;21.60;70.52
70488;BME280;57976;48.174;16.370;2023-05-23T06:51:21;98767.90;;;21.67;70.13
70488;BME280;57976;48.174;16.370;2023-05-23T06:53:26;98765.68;;;21.76;69.86
70488;BME280;57976;48.174;16.370;2023-05-23T06:55:31;98769.82;;;21.81;68.77
70488;BME280;57976;48.174;16.370;2023-05-23T06:57:36;98765.74;;;21.84;67.32
70488;BME280;57976;48.174;16.370;2023-05-23T06:59:41;98765.13;;;21.87;67.29
70488;BME280;57976;48.174;16.370;2023-05-23T07:01:47;98760.98;;;21.88;67.51
70488;BME280;57976;48.174;16.370;2023-05-23T07:03:52;98766.69;;;21.92;67.45
70488;BME280;57976;48.174;16.370;2023-05-23T07:05:58;98763.95;;;21.99;67.72
70488;BME280;57976;48.174;16.370;2023-05-23T07:08:03;98759.13;;;22.09;67.69
70488;BME280;57976;48.174;16.370;2023-05-23T07:10:09;98753.37;;;22.18;67.36
70488;BME280;57976;48.174;16.370;2023-05-23T07:12:14;98758.21;;;22.30;66.76
70488;BME280;57976;48.174;16.370;2023-05-23T07:14:20;98760.15;;;22.44;66.17
70488;BME280;57976;48.174;16.370;2023-05-23T07:16:26;98763.06;;;22.53;65.42
70488;BME280;57976;48.174;16.370;2023-05-23T07:18:38;98760.47;;;22.56;64.63
70488;BME280;57976;48.174;16.370;2023-05-23T07:20:43;98760.06;;;22.64;63.63
70488;BME280;57976;48.174;16.370;2023-05-23T07:22:51;98755.17;;;22.75;62.86
70488;BME280;57976;48.174;16.370;2023-05-23T07:24:56;98753.77;;;22.86;63.10
70488;BME280;57976;48.174;16.370;2023-05-23T07:27:06;98754.44;;;22.97;62.55
70488;BME280;57976;48.174;16.370;2023-05-23T07:29:11;98753.34;;;23.04;62.40
70488;BME280;57976;48.174;16.370;2023-05-23T07:31:16;98757.39;;;23.09;60.31
70488;BME280;57976;48.174;16.370;2023-05-23T07:33:21;98755.27;;;23.15;59.64
70488;BME280;57976;48.174;16.370;2023-05-23T07:35:26;98745.84;;;23.21;59.68
70488;BME280;57976;48.174;16.370;2023-05-23T07:37:31;98746.63;;;23.29;59.58
70488;BME280;57976;48.174;16.370;2023-05-23T07:39:36;98745.44;;;23.39;58.26
70488;BME280;57976;48.174;16.370;2023-05-23T07:41:41;98746.10;;;23.42;57.85
70488;BME280;57976;48.174;16.370;2023-05-23T07:43:46;98746.38;;;23.44;57.82
70488;BME280;57976;48.174;16.370;2023-05-23T07:45:51;98739.79;;;23.49;58.02
70488;BME280;57976;48.174;16.370;2023-05-23T07:47:56;98738.87;;;23.58;57.99
70488;BME280;57976;48.174;16.370;2023-05-23T07:50:01;98737.69;;;23.68;57.88
70488;BME280;57976;48.174;16.370;2023-05-23T07:52:07;98737.85;;;23.78;57.37
70488;BME280;57976;48.174;16.370;2023-05-23T07:54:12;98733.17;;;23.86;56.76
70488;BME280;57976;48.174;16.370;2023-05-23T07:56:20;98732.25;;;23.93;56.61
70488;BME280;57976;48.174;16.370;2023-05-23T07:58:25;98733.48;;;24.03;56.54
70488;BME280;57976;48.174;16.370;2023-05-23T08:00:30;98728.68;;;24.10;56.58
70488;BME280;57976;48.174;16.370;2023-05-23T08:02:37;98733.59;;;24.15;55.62
70488;BME280;57976;48.174;16.370;2023-05-23T08:04:42;98727.00;;;24.21;56.11
70488;BME280;57976;48.174;16.370;2023-05-23T08:06:47;98730.73;;;24.30;55.45
70488;BME280;57976;48.174;16.370;2023-05-23T08:09:22;98727.71;;;24.36;54.70
70488;BME280;57976;48.174;16.370;2023-05-23T08:11:29;98726.38;;;24.40;54.60
70488;BME280;57976;48.174;16.370;2023-05-23T08:13:33;98721.48;;;24.45;54.86
70488;BME280;57976;48.174;16.370;2023-05-23T08:15:58;98712.11;;;24.52;54.60
70488;BME280;57976;48.174;16.370;2023-05-23T08:18:05;98710.70;;;24.61;55.22
70488;BME280;57976;48.174;16.370;2023-05-23T08:20:11;98715.21;;;24.77;54.00
70488;BME280;57976;48.174;16.370;2023-05-23T08:22:16;98714.02;;;24.86;53.68
70488;BME280;57976;48.174;16.370;2023-05-23T08:24:24;98717.13;;;24.98;53.70
70488;BME280;57976;48.174;16.370;2023-05-23T08:26:29;98716.14;;;25.09;53.29
70488;BME280;57976;48.174;16.370;2023-05-23T08:28:35;98713.02;;;25.16;52.95
70488;BME280;57976;48.174;16.370;2023-05-23T08:30:41;98714.20;;;25.23;52.69
70488;BME280;57976;48.174;16.370;2023-05-23T08:32:46;98714.73;;;25.28;52.08
70488;BME280;57976;48.174;16.370;2023-05-23T08:34:51;98714.27;;;25.33;52.31
70488;BME280;57976;48.174;16.370;2023-05-23T08:36:56;98709.66;;;25.41;52.45
70488;BME280;57976;48.174;16.370;2023-05-23T08:39:01;98710.56;;;25.50;52.17
70488;BME280;57976;48.174;16.370;2023-05-23T08:41:17;98713.22;;;25.60;51.24
70488;BME280;57976;48.174;16.370;2023-05-23T08:43:23;98706.39;;;25.64;51.11
70488;BME280;57976;48.174;16.370;2023-05-23T08:45:28;98704.88;;;25.68;51.23
70488;BME280;57976;48.174;16.370;2023-05-23T08:47:34;98703.38;;;25.69;51.20
70488;BME280;57976;48.174;16.370;2023-05-23T08:49:42;98702.79;;;25.76;51.01
70488;BME280;57976;48.174;16.370;2023-05-23T08:51:47;98702.35;;;25.86;51.51
70488;BME280;57976;48.174;16.370;2023-05-23T08:53:56;98700.32;;;25.96;51.29
70488;BME280;57976;48.174;16.370;2023-05-23T08:56:05;98705.08;;;26.05;50.67
70488;BME280;57976;48.174;16.370;2023-05-23T08:58:17;98705.87;;;26.11;50.01
70488;BME280;57976;48.174;16.370;2023-05-23T09:00:30;98706.30;;;26.15;49.78
70488;BME280;57976;48.174;16.370;2023-05-23T09:02:35;98703.92;;;26.18;49.86
70488;BME280;57976;48.174;16.370;2023-05-23T09:04:50;98701.80;;;26.19;49.74
70488;BME280;57976;48.174;16.370;2023-05-23T09:06:59;98713.02;;;26.26;49.13
70488;BME280;57976;48.174;16.370;2023-05-23T09:09:05;98707.33;;;26.32;49.05
70488;BME280;57976;48.174;16.370;2023-05-23T09:11:10;98712.52;;;26.34;48.32
70488;BME280;57976;48.174;16.370;2023-05-23T09:13:15;98707.85;;;26.33;48.24
70488;BME280;57976;48.174;16.370;2023-05-23T09:15:21;98710.55;;;26.32;48.22
70488;BME280;57976;48.174;16.370;2023-05-23T09:17:26;98711.19;;;26.34;48.83
70488;BME280;57976;48.174;16.370;2023-05-23T09:19:31;98709.70;;;26.40;48.38
70488;BME280;57976;48.174;16.370;2023-05-23T09:21:43;98705.36;;;26.46;48.81
70488;BME280;57976;48.174;16.370;2023-05-23T09:23:56;98706.62;;;26.50;48.31
70488;BME280;57976;48.174;16.370;2023-05-23T09:26:04;98708.66;;;26.49;48.70
70488;BME280;57976;48.174;16.370;2023-05-23T09:28:09;98709.47;;;26.42;48.38
70488;BME280;57976;48.174;16.370;2023-05-23T09:30:15;98709.50;;;26.43;48.35
70488;BME280;57976;48.174;16.370;2023-05-23T09:32:22;98706.31;;;26.42;48.44
70488;BME280;57976;48.174;16.370;2023-05-23T09:34:28;98705.64;;;26.46;49.00
70488;BME280;57976;48.174;16.370;2023-05-23T09:36:33;98710.77;;;26.52;48.80
70488;BME280;57976;48.174;16.370;2023-05-23T09:38:41;98705.15;;;26.57;48.82
70488;BME280;57976;48.174;16.370;2023-05-23T09:40:46;98713.42;;;26.62;48.41
70488;BME280;57976;48.174;16.370;2023-05-23T09:42:51;98704.31;;;26.69;48.34
70488;BME280;57976;48.174;16.370;2023-05-23T09:44:57;98708.02;;;26.79;47.84
70488;BME280;57976;48.174;16.370;2023-05-23T09:47:06;98720.02;;;26.84;46.25
70488;BME280;57976;48.174;16.370;2023-05-23T09:49:18;98715.70;;;26.87;46.69
70488;BME280;57976;48.174;16.370;2023-05-23T09:51:24;98722.40;;;26.91;46.03
70488;BME280;57976;48.174;16.370;2023-05-23T09:53:29;98728.77;;;26.90;45.32
70488;BME280;57976;48.174;16.370;2023-05-23T09:55:34;98720.50;;;26.86;45.71
70488;BME280;57976;48.174;16.370;2023-05-23T09:57:41;98709.50;;;26.82;46.44
70488;BME280;57976;48.174;16.370;2023-05-23T09:59:52;98715.57;;;26.87;46.12
70488;BME280;57976;48.174;16.370;2023-05-23T10:01:58;98711.95;;;26.88;46.03
70488;BME280;57976;48.174;16.370;2023-05-23T10:04:05;98713.27;;;26.86;46.34
70488;BME280;57976;48.174;16.370;2023-05-23T10:06:15;98713.68;;;26.90;47.01
70488;BME280;57976;48.174;16.370;2023-05-23T10:08:24;98717.83;;;26.94;46.80
70488;BME280;57976;48.174;16.370;2023-05-23T10:10:32;98709.60;;;26.93;46.38
70488;BME280;57976;48.174;16.370;2023-05-23T10:12:48;98711.45;;;26.94;46.06
70488;BME280;57976;48.174;16.370;2023-05-23T10:14:56;98709.85;;;26.90;45.41
70488;BME280;57976;48.174;16.370;2023-05-23T10:17:07;98705.95;;;26.85;45.61
70488;BME280;57976;48.174;16.370;2023-05-23T10:19:19;98698.55;;;26.86;46.11
70488;BME280;57976;48.174;16.370;2023-05-23T10:21:32;98702.84;;;26.90;46.48
70488;BME280;57976;48.174;16.370;2023-05-23T10:23:39;98699.00;;;26.99;46.80
70488;BME280;57976;48.174;16.370;2023-05-23T10:25:46;98697.90;;;27.08;46.61
70488;BME280;57976;48.174;16.370;2023-05-23T10:27:55;98694.38;;;27.19;46.55
70488;BME280;57976;48.174;16.370;2023-05-23T10:30:01;98697.26;;;27.29;46.70
70488;BME280;57976;48.174;16.370;2023-05-23T10:32:07;98691.48;;;27.33;46.76
70488;BME280;57976;48.174;16.370;2023-05-23T10:34:17;98698.40;;;27.32;46.22
70488;BME280;57976;48.174;16.370;2023-05-23T10:36:29;98700.14;;;27.32;45.54
70488;BME280;57976;48.174;16.370;2023-05-23T10:38:40;98707.91;;;27.23;44.19
70488;BME280;57976;48.174;16.370;2023-05-23T10:40:54;98697.07;;;27.10;44.75
70488;BME280;57976;48.174;16.370;2023-05-23T10:43:09;98691.56;;;27.06;45.33
70488;BME280;57976;48.174;16.370;2023-05-23T10:45:18;98696.56;;;27.00;45.67
70488;BME280;57976;48.174;16.370;2023-05-23T10:47:29;98694.14;;;26.94;45.04
70488;BME280;57976;48.174;16.370;2023-05-23T10:49:41;98682.98;;;26.92;45.67
70488;BME280;57976;48.174;16.370;2023-05-23T10:51:49;98682.73;;;26.95;45.74
70488;BME280;57976;48.174;16.370;2023-05-23T10:53:55;98682.56;;;27.00;45.06
70488;BME280;57976;48.174;16.370;2023-05-23T10:56:00;98674.73;;;27.05;45.41
70488;BME280;57976;48.174;16.370;2023-05-23T10:58:14;98678.53;;;27.12;45.03
70488;BME280;57976;48.174;16.370;2023-05-23T11:00:23;98675.55;;;27.17;45.39
70488;BME280;57976;48.174;16.370;2023-05-23T11:02:29;98672.54;;;27.25;45.84
70488;BME280;57976;48.174;16.370;2023-05-23T11:04:37;98673.62;;;27.34;45.56